sensor_id;sensor_type;location;lat;lon;timestamp;P1;durP1;ratioP1;P2;durP2;ratioP2
62056;SDS011;48016;50.284;18.860;2023-05-18T00:00:12;17.20;;;9.70;;
62056;SDS011;48016;50.284;18.860;2023-05-18T00:03:01;22.30;;;9.20;;
62056;SDS011;48016;50.284;18.860;2023-05-18T00:05:28;17.20;;;9.60;;
62056;SDS011;48016;50.284;18.860;2023-05-18T00:07:59;14.50;;;9.50;;
62056;SDS011;48016;50.284;18.860;2023-05-18T00:10:26;14.10;;;9.30;;
62056;SDS011;48016;50.284;18.860;2023-05-18T00:12:53;17.20;;;10.50;;
62056;SDS011;48016;50.284;18.860;2023-05-18T00:15:20;19.00;;;10.40;;
62056;SDS011;48016;50.284;18.860;2023-05-18T00:17:47;17.80;;;11.30;;
62056;SDS011;48016;50.284;18.860;2023-05-18T00:20:15;19.80;;;10.20;;
62056;SDS011;48016;50.284;18.860;2023-05-18T00:22:43;15.50;;;9.90;;
62056;SDS011;48016;50.284;18.860;2023-05-18T00:25:10;16.90;;;9.80;;
62056;SDS011;48016;50.284;18.860;2023-05-18T00:27:36;17.10;;;9.90;;
62056;SDS011;48016;50.284;18.860;2023-05-18T00:30:03;18.80;;;9.60;;
62056;SDS011;48016;50.284;18.860;2023-05-18T00:32:31;13.10;;;8.70;;
62056;SDS011;48016;50.284;18.860;2023-05-18T00:34:58;16.50;;;9.20;;
62056;SDS011;48016;50.284;18.860;2023-05-18T00:37:24;13.40;;;8.70;;
62056;SDS011;48016;50.284;18.860;2023-05-18T00:39:51;16.20;;;9.20;;
62056;SDS011;48016;50.284;18.860;2023-05-18T00:42:17;17.50;;;10.40;;
62056;SDS011;48016;50.284;18.860;2023-05-18T00:44:44;18.40;;;9.30;;
62056;SDS011;48016;50.284;18.860;2023-05-18T00:47:11;16.10;;;8.30;;
62056;SDS011;48016;50.284;18.860;2023-05-18T00:49:37;16.90;;;9.70;;
62056;SDS011;48016;50.284;18.860;2023-05-18T00:52:04;18.60;;;9.10;;
62056;SDS011;48016;50.284;18.860;2023-05-18T00:54:31;21.20;;;9.00;;
62056;SDS011;48016;50.284;18.860;2023-05-18T00:56:58;18.20;;;9.10;;
62056;SDS011;48016;50.284;18.860;2023-05-18T00:59:28;20.00;;;9.10;;
62056;SDS011;48016;50.284;18.860;2023-05-18T01:01:55;18.00;;;9.30;;
62056;SDS011;48016;50.284;18.860;2023-05-18T01:04:22;21.30;;;9.40;;
62056;SDS011;48016;50.284;18.860;2023-05-18T01:06:51;16.70;;;8.10;;
62056;SDS011;48016;50.284;18.860;2023-05-18T01:09:21;18.40;;;8.20;;
62056;SDS011;48016;50.284;18.860;2023-05-18T01:14:20;14.20;;;7.50;;
62056;SDS011;48016;50.284;18.860;2023-05-18T01:17:19;16.80;;;8.60;;
62056;SDS011;48016;50.284;18.860;2023-05-18T01:20:08;16.80;;;7.00;;
62056;SDS011;48016;50.284;18.860;2023-05-18T01:28:19;11.20;;;6.40;;
62056;SDS011;48016;50.284;18.860;2023-05-18T01:30:53;13.30;;;6.30;;
62056;SDS011;48016;50.284;18.860;2023-05-18T01:33:21;16.10;;;7.00;;
62056;SDS011;48016;50.284;18.860;2023-05-18T01:35:50;17.20;;;7.00;;
62056;SDS011;48016;50.284;18.860;2023-05-18T01:38:17;12.70;;;6.60;;
62056;SDS011;48016;50.284;18.860;2023-05-18T01:43:36;15.00;;;5.90;;
62056;SDS011;48016;50.284;18.860;2023-05-18T01:46:09;17.10;;;7.50;;
62056;SDS011;48016;50.284;18.860;2023-05-18T01:48:42;13.00;;;6.30;;
62056;SDS011;48016;50.284;18.860;2023-05-18T01:51:13;11.60;;;5.90;;
62056;SDS011;48016;50.284;18.860;2023-05-18T01:53:49;11.70;;;6.00;;
62056;SDS011;48016;50.284;18.860;2023-05-18T01:56:20;10.20;;;5.60;;
62056;SDS011;48016;50.284;18.860;2023-05-18T01:58:47;16.60;;;6.10;;
62056;SDS011;48016;50.284;18.860;2023-05-18T02:01:15;14.10;;;6.30;;
62056;SDS011;48016;50.284;18.860;2023-05-18T02:03:45;11.90;;;5.50;;
62056;SDS011;48016;50.284;18.860;2023-05-18T02:06:11;12.30;;;5.00;;
62056;SDS011;48016;50.284;18.860;2023-05-18T02:08:38;11.80;;;5.60;;
62056;SDS011;48016;50.284;18.860;2023-05-18T02:11:05;12.10;;;5.10;;
62056;SDS011;48016;50.284;18.860;2023-05-18T02:13:32;12.40;;;5.60;;
62056;SDS011;48016;50.284;18.860;2023-05-18T02:15:58;12.40;;;5.20;;
62056;SDS011;48016;50.284;18.860;2023-05-18T02:18:25;10.40;;;4.80;;
62056;SDS011;48016;50.284;18.860;2023-05-18T02:20:57;12.80;;;5.40;;
62056;SDS011;48016;50.284;18.860;2023-05-18T02:23:28;14.10;;;5.10;;
62056;SDS011;48016;50.284;18.860;2023-05-18T02:25:54;14.80;;;5.20;;
62056;SDS011;48016;50.284;18.860;2023-05-18T02:28:21;9.30;;;4.50;;
62056;SDS011;48016;50.284;18.860;2023-05-18T02:30:48;8.50;;;4.50;;
62056;SDS011;48016;50.284;18.860;2023-05-18T02:33:15;12.00;;;5.20;;
62056;SDS011;48016;50.284;18.860;2023-05-18T02:35:42;10.70;;;4.90;;
62056;SDS011;48016;50.284;18.860;2023-05-18T02:38:09;13.10;;;5.50;;
62056;SDS011;48016;50.284;18.860;2023-05-18T02:40:36;12.70;;;4.50;;
62056;SDS011;48016;50.284;18.860;2023-05-18T02:43:02;12.50;;;4.80;;
62056;SDS011;48016;50.284;18.860;2023-05-18T02:45:29;10.60;;;5.00;;
62056;SDS011;48016;50.284;18.860;2023-05-18T02:47:56;12.80;;;4.60;;
62056;SDS011;48016;50.284;18.860;2023-05-18T02:50:22;13.40;;;4.80;;
62056;SDS011;48016;50.284;18.860;2023-05-18T02:52:49;11.10;;;4.60;;
62056;SDS011;48016;50.284;18.860;2023-05-18T02:55:16;13.30;;;4.90;;
62056;SDS011;48016;50.284;18.860;2023-05-18T03:00:12;13.80;;;5.40;;
62056;SDS011;48016;50.284;18.860;2023-05-18T03:02:41;12.50;;;5.70;;
62056;SDS011;48016;50.284;18.860;2023-05-18T03:05:09;14.30;;;5.30;;
62056;SDS011;48016;50.284;18.860;2023-05-18T03:07:35;18.20;;;5.30;;
62056;SDS011;48016;50.284;18.860;2023-05-18T03:10:02;12.80;;;4.80;;
62056;SDS011;48016;50.284;18.860;2023-05-18T03:12:29;10.90;;;5.00;;
62056;SDS011;48016;50.284;18.860;2023-05-18T03:14:56;11.00;;;5.00;;
62056;SDS011;48016;50.284;18.860;2023-05-18T03:17:23;15.70;;;4.80;;
62056;SDS011;48016;50.284;18.860;2023-05-18T03:19:49;8.40;;;3.90;;
62056;SDS011;48016;50.284;18.860;2023-05-18T03:22:16;8.40;;;4.60;;
62056;SDS011;48016;50.284;18.860;2023-05-18T03:24:43;11.20;;;4.80;;
62056;SDS011;48016;50.284;18.860;2023-05-18T03:27:09;14.10;;;4.90;;
62056;SDS011;48016;50.284;18.860;2023-05-18T03:29:38;10.80;;;5.00;;
62056;SDS011;48016;50.284;18.860;2023-05-18T03:32:04;10.90;;;4.80;;
62056;SDS011;48016;50.284;18.860;2023-05-18T03:34:31;9.40;;;4.30;;
62056;SDS011;48016;50.284;18.860;2023-05-18T03:36:58;9.50;;;4.60;;
62056;SDS011;48016;50.284;18.860;2023-05-18T03:39:25;14.00;;;5.00;;
62056;SDS011;48016;50.284;18.860;2023-05-18T03:41:51;10.40;;;4.60;;
62056;SDS011;48016;50.284;18.860;2023-05-18T03:44:18;9.00;;;5.10;;
62056;SDS011;48016;50.284;18.860;2023-05-18T03:46:45;12.40;;;4.80;;
62056;SDS011;48016;50.284;18.860;2023-05-18T03:49:11;12.10;;;5.30;;
62056;SDS011;48016;50.284;18.860;2023-05-18T03:51:38;12.30;;;5.40;;
62056;SDS011;48016;50.284;18.860;2023-05-18T03:54:04;11.30;;;4.80;;
62056;SDS011;48016;50.284;18.860;2023-05-18T03:56:31;9.60;;;4.60;;
62056;SDS011;48016;50.284;18.860;2023-05-18T03:58:58;10.30;;;4.80;;
62056;SDS011;48016;50.284;18.860;2023-05-18T04:01:25;9.10;;;5.00;;
62056;SDS011;48016;50.284;18.860;2023-05-18T04:03:55;13.40;;;4.90;;
62056;SDS011;48016;50.284;18.860;2023-05-18T04:06:22;11.20;;;4.60;;
62056;SDS011;48016;50.284;18.860;2023-05-18T04:08:51;10.10;;;5.00;;
62056;SDS011;48016;50.284;18.860;2023-05-18T04:11:18;15.70;;;7.10;;
62056;SDS011;48016;50.284;18.860;2023-05-18T04:13:45;16.30;;;4.90;;
62056;SDS011;48016;50.284;18.860;2023-05-18T04:16:12;12.00;;;4.70;;
62056;SDS011;48016;50.284;18.860;2023-05-18T04:18:39;11.20;;;4.80;;
62056;SDS011;48016;50.284;18.860;2023-05-18T04:21:06;9.80;;;4.80;;
62056;SDS011;48016;50.284;18.860;2023-05-18T04:23:33;10.70;;;4.50;;
62056;SDS011;48016;50.284;18.860;2023-05-18T04:26:04;11.50;;;4.70;;
62056;SDS011;48016;50.284;18.860;2023-05-18T04:28:32;9.60;;;4.30;;
62056;SDS011;48016;50.284;18.860;2023-05-18T04:30:59;11.30;;;4.70;;
62056;SDS011;48016;50.284;18.860;2023-05-18T04:33:30;11.10;;;4.90;;
62056;SDS011;48016;50.284;18.860;2023-05-18T04:35:56;12.60;;;4.70;;
62056;SDS011;48016;50.284;18.860;2023-05-18T04:38:24;10.90;;;3.60;;
62056;SDS011;48016;50.284;18.860;2023-05-18T04:40:51;12.20;;;5.60;;
62056;SDS011;48016;50.284;18.860;2023-05-18T04:43:19;10.40;;;4.90;;
62056;SDS011;48016;50.284;18.860;2023-05-18T04:45:46;9.10;;;4.80;;
62056;SDS011;48016;50.284;18.860;2023-05-18T04:48:15;11.10;;;4.30;;
62056;SDS011;48016;50.284;18.860;2023-05-18T04:50:44;11.80;;;4.20;;
62056;SDS011;48016;50.284;18.860;2023-05-18T04:53:12;8.60;;;5.00;;
62056;SDS011;48016;50.284;18.860;2023-05-18T04:55:38;14.10;;;5.20;;
62056;SDS011;48016;50.284;18.860;2023-05-18T04:58:05;10.30;;;5.00;;
62056;SDS011;48016;50.284;18.860;2023-05-18T05:00:32;13.20;;;4.50;;
62056;SDS011;48016;50.284;18.860;2023-05-18T05:02:58;11.40;;;4.50;;
62056;SDS011;48016;50.284;18.860;2023-05-18T05:05:25;13.90;;;5.00;;
62056;SDS011;48016;50.284;18.860;2023-05-18T05:07:52;7.70;;;4.90;;
62056;SDS011;48016;50.284;18.860;2023-05-18T05:10:19;8.90;;;4.60;;
62056;SDS011;48016;50.284;18.860;2023-05-18T05:12:48;10.60;;;4.20;;
62056;SDS011;48016;50.284;18.860;2023-05-18T05:15:15;13.20;;;6.40;;
62056;SDS011;48016;50.284;18.860;2023-05-18T05:17:42;11.30;;;4.80;;
62056;SDS011;48016;50.284;18.860;2023-05-18T05:20:09;9.10;;;4.90;;
62056;SDS011;48016;50.284;18.860;2023-05-18T05:22:36;8.30;;;4.60;;
62056;SDS011;48016;50.284;18.860;2023-05-18T05:25:03;9.30;;;4.30;;
62056;SDS011;48016;50.284;18.860;2023-05-18T05:27:29;9.30;;;4.30;;
62056;SDS011;48016;50.284;18.860;2023-05-18T05:29:56;8.90;;;3.70;;
62056;SDS011;48016;50.284;18.860;2023-05-18T05:32:23;9.70;;;4.50;;
62056;SDS011;48016;50.284;18.860;2023-05-18T05:34:49;11.10;;;3.90;;
62056;SDS011;48016;50.284;18.860;2023-05-18T05:37:17;11.90;;;5.10;;
62056;SDS011;48016;50.284;18.860;2023-05-18T05:39:44;12.90;;;5.00;;
62056;SDS011;48016;50.284;18.860;2023-05-18T05:42:10;13.30;;;4.80;;
62056;SDS011;48016;50.284;18.860;2023-05-18T05:44:37;11.20;;;3.90;;
62056;SDS011;48016;50.284;18.860;2023-05-18T05:47:06;11.20;;;4.00;;
62056;SDS011;48016;50.284;18.860;2023-05-18T05:49:33;11.10;;;4.90;;
62056;SDS011;48016;50.284;18.860;2023-05-18T05:51:59;12.40;;;4.40;;
62056;SDS011;48016;50.284;18.860;2023-05-18T05:54:26;11.30;;;3.50;;
62056;SDS011;48016;50.284;18.860;2023-05-18T05:56:53;15.00;;;4.60;;
62056;SDS011;48016;50.284;18.860;2023-05-18T05:59:19;11.80;;;3.70;;
62056;SDS011;48016;50.284;18.860;2023-05-18T06:01:47;11.70;;;4.10;;
62056;SDS011;48016;50.284;18.860;2023-05-18T06:04:14;11.80;;;4.10;;
62056;SDS011;48016;50.284;18.860;2023-05-18T06:06:41;10.90;;;4.00;;
62056;SDS011;48016;50.284;18.860;2023-05-18T06:09:09;11.60;;;4.20;;
62056;SDS011;48016;50.284;18.860;2023-05-18T06:11:36;10.50;;;3.80;;
62056;SDS011;48016;50.284;18.860;2023-05-18T06:14:03;10.20;;;3.50;;
62056;SDS011;48016;50.284;18.860;2023-05-18T06:16:29;7.80;;;3.60;;
62056;SDS011;48016;50.284;18.860;2023-05-18T06:18:56;10.30;;;3.40;;
62056;SDS011;48016;50.284;18.860;2023-05-18T06:21:23;12.20;;;4.10;;
62056;SDS011;48016;50.284;18.860;2023-05-18T06:23:49;9.60;;;3.70;;
62056;SDS011;48016;50.284;18.860;2023-05-18T06:26:16;9.40;;;3.10;;
62056;SDS011;48016;50.284;18.860;2023-05-18T06:28:43;13.70;;;3.70;;
62056;SDS011;48016;50.284;18.860;2023-05-18T06:31:09;10.60;;;3.90;;
62056;SDS011;48016;50.284;18.860;2023-05-18T06:33:36;11.90;;;5.90;;
62056;SDS011;48016;50.284;18.860;2023-05-18T06:36:03;9.80;;;4.90;;
62056;SDS011;48016;50.284;18.860;2023-05-18T06:38:30;11.10;;;4.50;;
62056;SDS011;48016;50.284;18.860;2023-05-18T06:40:57;7.30;;;4.50;;
62056;SDS011;48016;50.284;18.860;2023-05-18T06:43:23;9.70;;;3.60;;
62056;SDS011;48016;50.284;18.860;2023-05-18T06:45:54;9.00;;;2.90;;
62056;SDS011;48016;50.284;18.860;2023-05-18T06:48:24;9.90;;;3.30;;
62056;SDS011;48016;50.284;18.860;2023-05-18T06:50:51;8.20;;;3.00;;
62056;SDS011;48016;50.284;18.860;2023-05-18T06:53:18;8.60;;;2.70;;
62056;SDS011;48016;50.284;18.860;2023-05-18T06:55:45;10.90;;;2.80;;
62056;SDS011;48016;50.284;18.860;2023-05-18T06:58:12;8.40;;;2.80;;
62056;SDS011;48016;50.284;18.860;2023-05-18T07:00:38;8.10;;;3.00;;
62056;SDS011;48016;50.284;18.860;2023-05-18T07:03:05;8.20;;;2.90;;
62056;SDS011;48016;50.284;18.860;2023-05-18T07:05:31;9.20;;;3.10;;
62056;SDS011;48016;50.284;18.860;2023-05-18T07:07:58;7.00;;;3.10;;
62056;SDS011;48016;50.284;18.860;2023-05-18T07:10:24;6.60;;;2.90;;
62056;SDS011;48016;50.284;18.860;2023-05-18T07:12:51;7.00;;;2.70;;
62056;SDS011;48016;50.284;18.860;2023-05-18T07:15:18;6.70;;;2.70;;
62056;SDS011;48016;50.284;18.860;2023-05-18T07:17:44;7.00;;;3.10;;
62056;SDS011;48016;50.284;18.860;2023-05-18T07:20:11;9.20;;;3.30;;
62056;SDS011;48016;50.284;18.860;2023-05-18T07:22:37;7.20;;;3.60;;
62056;SDS011;48016;50.284;18.860;2023-05-18T07:25:04;9.90;;;3.30;;
62056;SDS011;48016;50.284;18.860;2023-05-18T07:27:31;10.90;;;3.20;;
62056;SDS011;48016;50.284;18.860;2023-05-18T07:29:59;8.90;;;3.20;;
62056;SDS011;48016;50.284;18.860;2023-05-18T07:32:26;9.30;;;3.10;;
62056;SDS011;48016;50.284;18.860;2023-05-18T07:34:52;9.10;;;2.90;;
62056;SDS011;48016;50.284;18.860;2023-05-18T07:37:19;5.10;;;2.40;;
62056;SDS011;48016;50.284;18.860;2023-05-18T07:39:46;9.20;;;2.90;;
62056;SDS011;48016;50.284;18.860;2023-05-18T07:42:12;6.00;;;2.80;;
62056;SDS011;48016;50.284;18.860;2023-05-18T07:44:39;7.20;;;2.30;;
62056;SDS011;48016;50.284;18.860;2023-05-18T07:47:06;6.70;;;2.70;;
62056;SDS011;48016;50.284;18.860;2023-05-18T07:49:32;7.50;;;2.50;;
62056;SDS011;48016;50.284;18.860;2023-05-18T07:51:59;8.60;;;2.90;;
62056;SDS011;48016;50.284;18.860;2023-05-18T07:54:27;6.10;;;2.20;;
62056;SDS011;48016;50.284;18.860;2023-05-18T07:56:54;8.10;;;2.80;;
62056;SDS011;48016;50.284;18.860;2023-05-18T07:59:20;6.00;;;2.40;;
62056;SDS011;48016;50.284;18.860;2023-05-18T08:01:47;6.40;;;2.50;;
62056;SDS011;48016;50.284;18.860;2023-05-18T08:04:14;5.10;;;2.40;;
62056;SDS011;48016;50.284;18.860;2023-05-18T08:06:41;11.00;;;3.10;;
62056;SDS011;48016;50.284;18.860;2023-05-18T08:09:07;7.70;;;2.40;;
62056;SDS011;48016;50.284;18.860;2023-05-18T08:11:34;5.60;;;2.40;;
62056;SDS011;48016;50.284;18.860;2023-05-18T08:14:01;5.90;;;2.30;;
62056;SDS011;48016;50.284;18.860;2023-05-18T08:16:28;8.40;;;3.00;;
62056;SDS011;48016;50.284;18.860;2023-05-18T08:18:54;7.80;;;2.50;;
62056;SDS011;48016;50.284;18.860;2023-05-18T08:21:21;6.30;;;2.20;;
62056;SDS011;48016;50.284;18.860;2023-05-18T08:23:47;5.90;;;2.10;;
62056;SDS011;48016;50.284;18.860;2023-05-18T08:26:14;4.80;;;2.10;;
62056;SDS011;48016;50.284;18.860;2023-05-18T08:28:41;3.90;;;1.50;;
62056;SDS011;48016;50.284;18.860;2023-05-18T08:31:07;8.10;;;2.00;;
62056;SDS011;48016;50.284;18.860;2023-05-18T08:33:34;5.20;;;1.50;;
62056;SDS011;48016;50.284;18.860;2023-05-18T08:36:00;3.60;;;1.50;;
62056;SDS011;48016;50.284;18.860;2023-05-18T08:38:27;5.30;;;2.20;;
62056;SDS011;48016;50.284;18.860;2023-05-18T08:43:30;4.10;;;1.50;;
62056;SDS011;48016;50.284;18.860;2023-05-18T08:48:59;5.40;;;1.90;;
62056;SDS011;48016;50.284;18.860;2023-05-18T08:51:27;4.80;;;1.80;;
62056;SDS011;48016;50.284;18.860;2023-05-18T08:53:58;5.00;;;1.70;;
62056;SDS011;48016;50.284;18.860;2023-05-18T08:56:26;4.70;;;1.70;;
62056;SDS011;48016;50.284;18.860;2023-05-18T08:58:55;3.50;;;1.80;;
62056;SDS011;48016;50.284;18.860;2023-05-18T09:01:25;6.50;;;1.80;;
62056;SDS011;48016;50.284;18.860;2023-05-18T09:03:56;6.70;;;2.30;;
62056;SDS011;48016;50.284;18.860;2023-05-18T09:06:24;8.30;;;2.50;;
62056;SDS011;48016;50.284;18.860;2023-05-18T09:08:51;6.60;;;2.60;;
62056;SDS011;48016;50.284;18.860;2023-05-18T09:11:20;4.90;;;1.90;;
62056;SDS011;48016;50.284;18.860;2023-05-18T09:13:48;5.40;;;1.80;;
62056;SDS011;48016;50.284;18.860;2023-05-18T09:16:17;6.70;;;1.90;;
62056;SDS011;48016;50.284;18.860;2023-05-18T09:18:44;5.40;;;2.30;;
62056;SDS011;48016;50.284;18.860;2023-05-18T09:21:11;6.30;;;1.60;;
62056;SDS011;48016;50.284;18.860;2023-05-18T09:23:38;8.20;;;2.40;;
62056;SDS011;48016;50.284;18.860;2023-05-18T09:26:06;4.50;;;1.70;;
62056;SDS011;48016;50.284;18.860;2023-05-18T09:28:38;6.40;;;2.20;;
62056;SDS011;48016;50.284;18.860;2023-05-18T09:31:07;5.40;;;2.00;;
62056;SDS011;48016;50.284;18.860;2023-05-18T09:33:38;5.00;;;1.80;;
62056;SDS011;48016;50.284;18.860;2023-05-18T09:36:08;7.40;;;2.20;;
62056;SDS011;48016;50.284;18.860;2023-05-18T09:38:38;8.80;;;2.40;;
62056;SDS011;48016;50.284;18.860;2023-05-18T09:41:09;5.10;;;2.00;;
62056;SDS011;48016;50.284;18.860;2023-05-18T09:43:37;4.80;;;1.90;;
62056;SDS011;48016;50.284;18.860;2023-05-18T09:48:35;5.70;;;1.80;;
62056;SDS011;48016;50.284;18.860;2023-05-18T09:51:06;5.90;;;2.20;;
62056;SDS011;48016;50.284;18.860;2023-05-18T09:53:36;5.70;;;2.60;;
62056;SDS011;48016;50.284;18.860;2023-05-18T09:56:03;8.30;;;2.40;;
62056;SDS011;48016;50.284;18.860;2023-05-18T09:58:35;8.00;;;2.30;;
62056;SDS011;48016;50.284;18.860;2023-05-18T10:01:03;5.40;;;2.30;;
62056;SDS011;48016;50.284;18.860;2023-05-18T10:03:34;7.20;;;2.30;;
62056;SDS011;48016;50.284;18.860;2023-05-18T10:06:09;5.30;;;1.90;;
62056;SDS011;48016;50.284;18.860;2023-05-18T10:08:38;6.10;;;2.20;;
62056;SDS011;48016;50.284;18.860;2023-05-18T10:11:06;4.10;;;1.60;;
62056;SDS011;48016;50.284;18.860;2023-05-18T10:13:33;6.40;;;2.00;;
62056;SDS011;48016;50.284;18.860;2023-05-18T10:16:01;4.70;;;2.10;;
62056;SDS011;48016;50.284;18.860;2023-05-18T10:18:29;6.50;;;2.30;;
62056;SDS011;48016;50.284;18.860;2023-05-18T10:21:01;5.10;;;2.00;;
62056;SDS011;48016;50.284;18.860;2023-05-18T10:23:33;5.20;;;2.40;;
62056;SDS011;48016;50.284;18.860;2023-05-18T10:26:03;7.70;;;2.70;;
62056;SDS011;48016;50.284;18.860;2023-05-18T10:28:35;5.90;;;1.90;;
62056;SDS011;48016;50.284;18.860;2023-05-18T10:31:06;5.90;;;2.70;;
62056;SDS011;48016;50.284;18.860;2023-05-18T10:33:34;5.20;;;1.90;;
62056;SDS011;48016;50.284;18.860;2023-05-18T10:36:02;4.80;;;1.70;;
62056;SDS011;48016;50.284;18.860;2023-05-18T10:38:30;5.20;;;2.00;;
62056;SDS011;48016;50.284;18.860;2023-05-18T10:40:57;5.90;;;1.90;;
62056;SDS011;48016;50.284;18.860;2023-05-18T10:43:25;8.10;;;1.90;;
62056;SDS011;48016;50.284;18.860;2023-05-18T10:45:54;5.50;;;2.10;;
62056;SDS011;48016;50.284;18.860;2023-05-18T10:48:26;5.50;;;2.20;;
62056;SDS011;48016;50.284;18.860;2023-05-18T10:50:54;6.20;;;1.90;;
62056;SDS011;48016;50.284;18.860;2023-05-18T10:53:23;6.10;;;1.70;;
62056;SDS011;48016;50.284;18.860;2023-05-18T10:55:57;6.50;;;2.00;;
62056;SDS011;48016;50.284;18.860;2023-05-18T10:58:25;5.60;;;1.90;;
62056;SDS011;48016;50.284;18.860;2023-05-18T11:00:55;5.90;;;2.00;;
62056;SDS011;48016;50.284;18.860;2023-05-18T11:03:24;9.00;;;2.10;;
62056;SDS011;48016;50.284;18.860;2023-05-18T11:06:05;5.00;;;2.20;;
62056;SDS011;48016;50.284;18.860;2023-05-18T11:08:40;7.20;;;2.10;;
62056;SDS011;48016;50.284;18.860;2023-05-18T11:11:09;7.30;;;2.10;;
62056;SDS011;48016;50.284;18.860;2023-05-18T11:13:36;4.00;;;1.80;;
62056;SDS011;48016;50.284;18.860;2023-05-18T11:16:08;5.90;;;2.10;;
62056;SDS011;48016;50.284;18.860;2023-05-18T11:26:47;4.10;;;1.90;;
62056;SDS011;48016;50.284;18.860;2023-05-18T11:31:53;8.80;;;1.90;;
62056;SDS011;48016;50.284;18.860;2023-05-18T11:34:33;4.80;;;2.10;;
62056;SDS011;48016;50.284;18.860;2023-05-18T11:37:01;4.70;;;2.20;;
62056;SDS011;48016;50.284;18.860;2023-05-18T11:39:28;6.30;;;2.30;;
62056;SDS011;48016;50.284;18.860;2023-05-18T11:41:59;4.80;;;2.00;;
62056;SDS011;48016;50.284;18.860;2023-05-18T11:44:27;5.60;;;2.20;;
62056;SDS011;48016;50.284;18.860;2023-05-18T11:49:25;5.00;;;1.70;;
62056;SDS011;48016;50.284;18.860;2023-05-18T11:52:00;7.50;;;2.20;;
62056;SDS011;48016;50.284;18.860;2023-05-18T11:54:27;4.90;;;1.80;;
62056;SDS011;48016;50.284;18.860;2023-05-18T11:56:58;8.70;;;2.30;;
62056;SDS011;48016;50.284;18.860;2023-05-18T11:59:38;4.80;;;2.50;;
62056;SDS011;48016;50.284;18.860;2023-05-18T12:02:06;6.50;;;2.10;;
62056;SDS011;48016;50.284;18.860;2023-05-18T12:05:10;5.50;;;2.20;;
62056;SDS011;48016;50.284;18.860;2023-05-18T12:07:33;6.70;;;2.20;;
62056;SDS011;48016;50.284;18.860;2023-05-18T12:10:02;5.80;;;2.10;;
62056;SDS011;48016;50.284;18.860;2023-05-18T12:12:30;4.70;;;1.70;;
62056;SDS011;48016;50.284;18.860;2023-05-18T12:15:00;4.50;;;2.40;;
62056;SDS011;48016;50.284;18.860;2023-05-18T12:17:49;4.70;;;2.30;;
62056;SDS011;48016;50.284;18.860;2023-05-18T12:20:20;4.80;;;2.20;;
62056;SDS011;48016;50.284;18.860;2023-05-18T12:22:50;5.50;;;2.20;;
62056;SDS011;48016;50.284;18.860;2023-05-18T12:25:22;5.50;;;2.30;;
62056;SDS011;48016;50.284;18.860;2023-05-18T12:27:53;6.60;;;2.70;;
62056;SDS011;48016;50.284;18.860;2023-05-18T12:32:48;4.20;;;2.00;;
62056;SDS011;48016;50.284;18.860;2023-05-18T12:35:16;6.40;;;2.50;;
62056;SDS011;48016;50.284;18.860;2023-05-18T12:37:47;7.00;;;2.40;;
62056;SDS011;48016;50.284;18.860;2023-05-18T12:40:18;6.40;;;2.50;;
62056;SDS011;48016;50.284;18.860;2023-05-18T12:42:51;4.70;;;2.20;;
62056;SDS011;48016;50.284;18.860;2023-05-18T12:45:20;6.50;;;2.50;;
62056;SDS011;48016;50.284;18.860;2023-05-18T12:47:48;9.50;;;3.20;;
62056;SDS011;48016;50.284;18.860;2023-05-18T12:50:20;9.50;;;3.00;;
62056;SDS011;48016;50.284;18.860;2023-05-18T12:52:49;6.50;;;3.10;;
62056;SDS011;48016;50.284;18.860;2023-05-18T12:55:17;7.40;;;3.00;;
62056;SDS011;48016;50.284;18.860;2023-05-18T12:57:58;7.20;;;2.60;;
62056;SDS011;48016;50.284;18.860;2023-05-18T13:00:34;6.40;;;3.30;;
62056;SDS011;48016;50.284;18.860;2023-05-18T13:03:06;7.70;;;2.60;;
62056;SDS011;48016;50.284;18.860;2023-05-18T13:05:37;7.40;;;2.80;;
62056;SDS011;48016;50.284;18.860;2023-05-18T13:08:04;7.50;;;2.90;;
62056;SDS011;48016;50.284;18.860;2023-05-18T13:10:31;6.40;;;3.30;;
62056;SDS011;48016;50.284;18.860;2023-05-18T13:12:58;5.50;;;2.20;;
62056;SDS011;48016;50.284;18.860;2023-05-18T13:15:32;4.30;;;2.00;;
62056;SDS011;48016;50.284;18.860;2023-05-18T13:18:01;5.30;;;2.00;;
62056;SDS011;48016;50.284;18.860;2023-05-18T13:20:51;5.00;;;2.60;;
62056;SDS011;48016;50.284;18.860;2023-05-18T13:23:22;5.10;;;2.10;;
62056;SDS011;48016;50.284;18.860;2023-05-18T13:25:52;6.30;;;2.60;;
62056;SDS011;48016;50.284;18.860;2023-05-18T13:28:19;5.90;;;2.50;;
62056;SDS011;48016;50.284;18.860;2023-05-18T13:30:47;4.60;;;2.50;;
62056;SDS011;48016;50.284;18.860;2023-05-18T13:33:15;5.70;;;2.70;;
62056;SDS011;48016;50.284;18.860;2023-05-18T13:35:44;4.70;;;2.30;;
62056;SDS011;48016;50.284;18.860;2023-05-18T13:38:12;6.70;;;2.90;;
62056;SDS011;48016;50.284;18.860;2023-05-18T13:40:39;6.10;;;2.80;;
62056;SDS011;48016;50.284;18.860;2023-05-18T13:43:07;6.30;;;3.50;;
62056;SDS011;48016;50.284;18.860;2023-05-18T13:45:34;5.70;;;2.90;;
62056;SDS011;48016;50.284;18.860;2023-05-18T13:48:01;6.80;;;2.60;;
62056;SDS011;48016;50.284;18.860;2023-05-18T13:50:32;6.10;;;2.50;;
62056;SDS011;48016;50.284;18.860;2023-05-18T13:52:58;4.60;;;2.60;;
62056;SDS011;48016;50.284;18.860;2023-05-18T13:55:25;8.00;;;3.20;;
62056;SDS011;48016;50.284;18.860;2023-05-18T13:57:51;7.50;;;2.80;;
62056;SDS011;48016;50.284;18.860;2023-05-18T14:00:18;6.60;;;3.70;;
62056;SDS011;48016;50.284;18.860;2023-05-18T14:05:13;7.90;;;3.00;;
62056;SDS011;48016;50.284;18.860;2023-05-18T14:07:40;5.40;;;2.50;;
62056;SDS011;48016;50.284;18.860;2023-05-18T14:10:08;6.40;;;2.80;;
62056;SDS011;48016;50.284;18.860;2023-05-18T14:12:36;6.60;;;2.90;;
62056;SDS011;48016;50.284;18.860;2023-05-18T14:15:03;7.70;;;3.00;;
62056;SDS011;48016;50.284;18.860;2023-05-18T14:17:31;7.60;;;3.10;;
62056;SDS011;48016;50.284;18.860;2023-05-18T14:19:58;6.40;;;2.90;;
62056;SDS011;48016;50.284;18.860;2023-05-18T14:22:24;7.60;;;4.00;;
62056;SDS011;48016;50.284;18.860;2023-05-18T14:24:51;5.50;;;3.40;;
62056;SDS011;48016;50.284;18.860;2023-05-18T14:27:18;6.20;;;2.70;;
62056;SDS011;48016;50.284;18.860;2023-05-18T14:29:48;8.90;;;3.80;;
62056;SDS011;48016;50.284;18.860;2023-05-18T14:32:16;8.20;;;4.40;;
62056;SDS011;48016;50.284;18.860;2023-05-18T14:37:09;4.90;;;2.80;;
62056;SDS011;48016;50.284;18.860;2023-05-18T14:39:36;6.70;;;2.70;;
62056;SDS011;48016;50.284;18.860;2023-05-18T14:42:03;6.50;;;3.20;;
62056;SDS011;48016;50.284;18.860;2023-05-18T14:44:31;6.00;;;3.30;;
62056;SDS011;48016;50.284;18.860;2023-05-18T14:46:57;6.10;;;3.10;;
62056;SDS011;48016;50.284;18.860;2023-05-18T14:49:24;6.60;;;3.50;;
62056;SDS011;48016;50.284;18.860;2023-05-18T14:51:50;9.10;;;3.50;;
62056;SDS011;48016;50.284;18.860;2023-05-18T14:54:17;8.60;;;3.70;;
62056;SDS011;48016;50.284;18.860;2023-05-18T14:56:47;7.10;;;3.60;;
62056;SDS011;48016;50.284;18.860;2023-05-18T14:59:14;7.70;;;3.00;;
62056;SDS011;48016;50.284;18.860;2023-05-18T15:01:40;6.80;;;3.50;;
62056;SDS011;48016;50.284;18.860;2023-05-18T15:04:07;5.60;;;2.70;;
62056;SDS011;48016;50.284;18.860;2023-05-18T15:06:34;5.60;;;2.80;;
62056;SDS011;48016;50.284;18.860;2023-05-18T15:09:02;7.70;;;2.80;;
62056;SDS011;48016;50.284;18.860;2023-05-18T15:11:31;5.60;;;2.80;;
62056;SDS011;48016;50.284;18.860;2023-05-18T15:13:57;7.10;;;3.40;;
62056;SDS011;48016;50.284;18.860;2023-05-18T15:16:24;5.40;;;2.30;;